createdAt,value
2018-04-20T00:01:57.321Z,8.90
2018-04-20T00:04:24.822Z,8.80
2018-04-20T00:06:53.115Z,8.90
2018-04-20T00:09:20.581Z,8.80
2018-04-20T00:11:48.051Z,8.70
2018-04-20T00:14:15.614Z,8.60
2018-04-20T00:16:43.135Z,8.40
2018-04-20T00:19:10.676Z,8.40
2018-04-20T00:21:38.156Z,8.30
2018-04-20T00:24:06.455Z,8.50
2018-04-20T00:26:33.987Z,8.50
2018-04-20T00:29:01.461Z,8.60
2018-04-20T00:31:29.690Z,8.40
2018-04-20T00:33:57.259Z,8.40
2018-04-20T00:36:24.781Z,8.40
2018-04-20T00:38:52.302Z,8.40
2018-04-20T00:41:19.852Z,8.40
2018-04-20T00:43:47.371Z,8.40
2018-04-20T00:46:14.872Z,8.30
2018-04-20T00:48:43.127Z,8.20
2018-04-20T00:51:10.638Z,8.20
2018-04-20T00:56:45.054Z,8.10
2018-04-20T00:59:13.324Z,8.00
2018-04-20T01:01:41.608Z,8.10
2018-04-20T01:04:09.904Z,8.20
2018-04-20T01:06:37.473Z,8.10
2018-04-20T01:09:05.750Z,8.10
2018-04-20T01:11:33.213Z,8.10
2018-04-20T01:14:00.741Z,8.00
2018-04-20T01:16:28.217Z,7.90
2018-04-20T01:18:55.740Z,7.80
2018-04-20T01:21:24.072Z,7.70
2018-04-20T01:23:51.545Z,7.60
2018-04-20T01:26:19.024Z,7.70
2018-04-20T01:28:47.297Z,7.70
2018-04-20T01:31:15.582Z,7.60
2018-04-20T01:33:43.864Z,7.50
2018-04-20T01:36:12.143Z,7.40
2018-04-20T01:38:40.451Z,7.30
2018-04-20T01:41:07.983Z,7.30
2018-04-20T01:43:35.507Z,7.30
2018-04-20T01:46:03.019Z,7.30
2018-04-20T01:48:30.545Z,7.30
2018-04-20T01:50:58.075Z,7.30
2018-04-20T01:53:25.555Z,7.30
2018-04-20T01:55:53.820Z,7.30
2018-04-20T01:58:21.344Z,7.30
2018-04-20T02:00:48.879Z,7.30
2018-04-20T02:03:16.429Z,7.30
2018-04-20T02:05:43.914Z,7.20
2018-04-20T02:08:11.436Z,7.20
2018-04-20T02:10:39.695Z,7.00
2018-04-20T02:13:07.983Z,6.90
2018-04-20T02:15:36.246Z,6.90
2018-04-20T02:18:04.483Z,6.90
2018-04-20T02:20:31.962Z,6.90
2018-04-20T02:22:59.512Z,6.90
2018-04-20T02:25:26.986Z,6.80
2018-04-20T02:27:54.518Z,6.70
2018-04-20T02:30:22.027Z,6.70
2018-04-20T02:32:49.518Z,6.60
2018-04-20T02:35:17.030Z,6.60
2018-04-20T02:37:45.277Z,6.70
2018-04-20T02:40:12.811Z,6.70
2018-04-20T02:42:40.331Z,6.70
2018-04-20T02:45:07.836Z,6.70
2018-04-20T02:47:35.334Z,6.70
2018-04-20T02:50:03.572Z,6.70
2018-04-20T02:52:31.104Z,6.80
2018-04-20T02:54:58.626Z,6.70
2018-04-20T02:57:26.913Z,6.50
2018-04-20T02:59:54.423Z,6.50
2018-04-20T03:02:21.944Z,6.40
2018-04-20T03:04:49.425Z,6.30
2018-04-20T03:07:16.928Z,6.20
2018-04-20T03:09:45.236Z,6.10
2018-04-20T03:12:12.729Z,6.10
2018-04-20T03:14:40.213Z,6.10
2018-04-20T03:17:07.718Z,6.20
2018-04-20T03:19:35.198Z,6.20
2018-04-20T03:22:02.694Z,6.30
2018-04-20T03:24:30.988Z,6.40
2018-04-20T03:26:58.459Z,6.40
2018-04-20T03:29:25.998Z,6.50
2018-04-20T03:31:54.271Z,6.50
2018-04-20T03:34:22.563Z,6.50
2018-04-20T03:36:50.097Z,6.50
2018-04-20T03:39:18.365Z,6.40
2018-04-20T03:41:46.606Z,6.30
2018-04-20T03:44:14.124Z,6.30
2018-04-20T03:46:41.660Z,6.20
2018-04-20T03:49:09.143Z,6.20
2018-04-20T03:51:36.660Z,6.20
2018-04-20T03:54:04.204Z,6.20
2018-04-20T03:56:31.666Z,6.10
2018-04-20T03:58:59.174Z,6.10
2018-04-20T04:01:26.669Z,6.00
2018-04-20T04:03:54.176Z,6.00
2018-04-20T04:06:22.428Z,6.00
2018-04-20T04:08:49.914Z,5.90
2018-04-20T04:11:17.431Z,5.90
2018-04-20T04:13:44.947Z,5.90
2018-04-20T04:16:12.422Z,5.80
2018-04-20T04:18:51.903Z,5.80
2018-04-20T04:21:30.745Z,5.90
2018-04-20T04:27:10.381Z,5.90
2018-04-20T04:29:37.865Z,5.80
2018-04-20T04:32:05.341Z,5.80
2018-04-20T04:34:32.807Z,5.80
2018-04-20T04:37:00.302Z,5.80
2018-04-20T04:39:27.766Z,5.90
2018-04-20T04:41:55.267Z,6.00
2018-04-20T04:44:22.800Z,6.10
2018-04-20T04:46:51.021Z,6.40
2018-04-20T04:49:18.494Z,6.40
2018-04-20T04:51:46.019Z,6.50
2018-04-20T04:54:13.549Z,6.60
2018-04-20T04:56:41.018Z,6.70
2018-04-20T04:59:08.522Z,6.80
2018-04-20T05:01:36.040Z,6.80
2018-04-20T05:04:03.532Z,6.90
2018-04-20T05:06:31.781Z,7.00
2018-04-20T05:08:59.281Z,7.00
2018-04-20T05:11:26.797Z,7.10
2018-04-20T05:13:54.319Z,7.30
2018-04-20T05:16:21.856Z,7.50
2018-04-20T05:18:49.369Z,7.70
2018-04-20T05:21:16.888Z,7.90
2018-04-20T05:23:44.357Z,8.60
2018-04-20T05:26:12.653Z,10.50
2018-04-20T05:28:40.167Z,10.50
2018-04-20T05:31:07.716Z,11.20
2018-04-20T05:33:35.243Z,12.20
2018-04-20T05:36:02.769Z,13.70
2018-04-20T05:38:31.013Z,15.80
2018-04-20T05:40:58.516Z,15.70
2018-04-20T05:43:26.063Z,16.40
2018-04-20T05:45:54.331Z,17.20
2018-04-20T05:48:21.806Z,17.10
2018-04-20T05:50:49.366Z,17.90
2018-04-20T05:53:16.875Z,18.20
2018-04-20T05:55:44.396Z,18.80
2018-04-20T05:58:11.929Z,20.00
2018-04-20T06:00:40.173Z,21.20
2018-04-20T06:03:07.648Z,21.20
2018-04-20T06:05:35.909Z,21.80
2018-04-20T06:08:03.385Z,21.70
2018-04-20T06:10:31.682Z,23.10
2018-04-20T06:12:59.220Z,23.00
2018-04-20T06:15:27.507Z,23.60
2018-04-20T06:17:55.798Z,24.30
2018-04-20T06:20:23.311Z,24.30
2018-04-20T06:22:50.859Z,24.70
2018-04-20T06:25:18.360Z,25.00
2018-04-20T06:27:45.889Z,24.80
2018-04-20T06:30:13.357Z,25.00
2018-04-20T06:32:41.627Z,25.70
2018-04-20T06:35:09.091Z,25.70
2018-04-20T06:37:37.419Z,25.70
2018-04-20T06:40:05.609Z,26.20
2018-04-20T06:42:33.151Z,26.20
2018-04-20T06:45:00.704Z,26.40
2018-04-20T06:47:28.225Z,26.70
2018-04-20T06:49:56.466Z,26.40
2018-04-20T06:52:24.008Z,26.40
2018-04-20T06:54:52.274Z,27.50
2018-04-20T06:57:19.784Z,27.50
2018-04-20T06:59:47.295Z,27.80
2018-04-20T07:02:14.807Z,27.50
2018-04-20T07:04:43.098Z,28.40
2018-04-20T07:07:11.414Z,28.30
2018-04-20T07:09:38.923Z,28.60
2018-04-20T07:12:07.209Z,28.40
2018-04-20T07:14:34.737Z,28.40
2018-04-20T07:17:02.245Z,28.80
2018-04-20T07:19:29.738Z,29.00
2018-04-20T07:21:57.276Z,29.20
2018-04-20T07:24:24.761Z,29.80
2018-04-20T07:33:37.708Z,29.30
2018-04-20T07:36:05.191Z,30.50
2018-04-20T07:38:32.675Z,30.70
2018-04-20T07:41:00.219Z,31.10
2018-04-20T07:43:28.449Z,31.30
2018-04-20T07:45:55.967Z,31.20
2018-04-20T07:48:23.495Z,32.20
2018-04-20T07:50:50.966Z,32.80
2018-04-20T07:53:19.249Z,32.70
2018-04-20T07:55:46.807Z,32.70
2018-04-20T07:58:15.096Z,33.30
2018-04-20T08:00:42.623Z,33.20
2018-04-20T08:03:10.891Z,33.70
2018-04-20T08:05:38.403Z,33.70
2018-04-20T08:08:05.935Z,33.50
2018-04-20T08:10:34.206Z,32.90
2018-04-20T08:13:02.436Z,33.10
2018-04-20T08:15:29.977Z,33.10
2018-04-20T08:17:57.493Z,33.10
2018-04-20T08:20:25.963Z,32.60
2018-04-20T08:22:53.445Z,32.60
2018-04-20T08:25:20.931Z,32.40
2018-04-20T08:27:48.445Z,31.90
2018-04-20T08:30:16.730Z,31.60
2018-04-20T08:32:44.212Z,31.60
2018-04-20T08:35:11.710Z,31.60
2018-04-20T08:37:39.190Z,31.40
2018-04-20T08:40:07.422Z,31.70
2018-04-20T08:42:34.932Z,31.70
2018-04-20T08:45:03.219Z,31.70
2018-04-20T08:47:30.673Z,31.70
2018-04-20T08:49:58.135Z,31.10
2018-04-20T08:52:25.650Z,29.60
2018-04-20T08:54:53.126Z,27.80
2018-04-20T08:57:21.359Z,25.20
2018-04-20T08:59:48.842Z,25.10
2018-04-20T09:02:17.146Z,24.00
2018-04-20T09:04:44.651Z,24.00
2018-04-20T09:07:12.152Z,23.60
2018-04-20T09:09:40.406Z,23.30
2018-04-20T09:12:07.917Z,23.30
2018-04-20T09:14:35.412Z,22.90
2018-04-20T09:17:02.885Z,22.80
2018-04-20T09:19:31.167Z,22.80
2018-04-20T09:21:58.630Z,22.80
2018-04-20T09:24:26.934Z,22.70
2018-04-20T09:26:54.390Z,22.70
2018-04-20T09:29:21.854Z,22.40
2018-04-20T09:31:49.330Z,22.30
2018-04-20T09:34:16.795Z,22.10
2018-04-20T09:36:44.270Z,22.20
2018-04-20T09:39:11.744Z,22.20
2018-04-20T09:41:40.005Z,22.20
2018-04-20T09:44:07.462Z,22.20
2018-04-20T09:46:34.937Z,22.10
2018-04-20T09:49:03.174Z,22.10
2018-04-20T09:51:30.645Z,22.10
2018-04-20T09:53:58.200Z,22.10
2018-04-20T09:56:25.702Z,22.20
2018-04-20T09:58:53.216Z,22.30
2018-04-20T10:01:24.611Z,22.20
2018-04-20T10:03:56.975Z,22.20
2018-04-20T10:06:25.263Z,22.30
2018-04-20T10:08:53.500Z,22.30
2018-04-20T10:11:20.970Z,22.30
2018-04-20T10:13:49.351Z,22.10
2018-04-20T10:16:17.578Z,22.20
2018-04-20T10:18:45.086Z,22.20
2018-04-20T10:21:13.325Z,22.40
2018-04-20T10:23:40.838Z,22.40
2018-04-20T10:26:08.332Z,22.40
2018-04-20T10:28:35.807Z,22.50
2018-04-20T10:31:03.265Z,22.50
2018-04-20T10:33:30.764Z,22.50
2018-04-20T10:35:58.249Z,22.50
2018-04-20T10:38:25.710Z,22.70
2018-04-20T10:40:53.178Z,22.70
2018-04-20T10:43:20.661Z,22.70
2018-04-20T10:45:48.943Z,22.80
2018-04-20T10:48:16.419Z,22.80
2018-04-20T10:50:43.940Z,22.80
2018-04-20T10:53:11.441Z,22.80
2018-04-20T10:55:38.939Z,22.80
2018-04-20T10:58:06.469Z,22.80
2018-04-20T11:00:33.934Z,23.00
2018-04-20T11:03:01.427Z,23.00
2018-04-20T11:05:28.890Z,23.10
2018-04-20T11:07:56.359Z,23.10
2018-04-20T11:10:24.613Z,23.10
2018-04-20T11:12:52.099Z,23.10
2018-04-20T11:15:20.329Z,23.10
2018-04-20T11:17:47.806Z,23.10
2018-04-20T11:20:15.277Z,23.20
2018-04-20T11:22:43.547Z,23.20
2018-04-20T11:25:11.064Z,23.20
2018-04-20T11:27:38.521Z,23.20
2018-04-20T11:30:12.154Z,23.30
2018-04-20T11:32:39.655Z,23.30
2018-04-20T11:35:07.155Z,23.30
2018-04-20T11:37:34.644Z,23.20
2018-04-20T11:40:02.923Z,23.30
2018-04-20T11:42:31.217Z,23.30
2018-04-20T11:44:58.748Z,23.30
2018-04-20T11:47:26.273Z,23.50
2018-04-20T11:49:53.747Z,23.50
2018-04-20T11:52:21.280Z,23.60
2018-04-20T11:54:48.778Z,23.40
2018-04-20T11:57:16.256Z,23.40
2018-04-20T11:59:44.567Z,23.60
2018-04-20T12:02:12.122Z,23.50
2018-04-20T12:04:39.579Z,23.60
2018-04-20T12:07:07.130Z,23.70
2018-04-20T12:09:34.645Z,23.60
2018-04-20T12:12:02.142Z,23.60
2018-04-20T12:14:29.635Z,23.60
2018-04-20T12:16:57.907Z,23.60
2018-04-20T12:19:25.437Z,23.60
2018-04-20T12:21:52.942Z,23.60
2018-04-20T12:24:20.467Z,23.60
2018-04-20T12:26:47.997Z,23.60
2018-04-20T12:29:15.528Z,23.70
2018-04-20T12:31:43.011Z,23.70
2018-04-20T12:34:11.343Z,23.80
2018-04-20T12:36:38.811Z,23.80
2018-04-20T12:39:06.360Z,23.90
2018-04-20T12:41:33.907Z,24.00
2018-04-20T12:44:01.414Z,24.10
2018-04-20T12:46:29.679Z,24.00
2018-04-20T12:48:58.011Z,23.90
2018-04-20T12:51:25.503Z,24.00
2018-04-20T12:53:53.005Z,24.00
2018-04-20T12:56:20.520Z,24.10
2018-04-20T12:58:48.029Z,24.20
2018-04-20T13:01:15.535Z,24.10
2018-04-20T13:03:43.131Z,24.00
2018-04-20T13:06:10.647Z,24.10
2018-04-20T13:08:38.170Z,24.20
2018-04-20T13:11:05.622Z,24.10
2018-04-20T13:13:33.125Z,24.10
2018-04-20T13:16:00.657Z,24.20
2018-04-20T13:18:28.878Z,24.20
2018-04-20T13:20:56.346Z,24.20
2018-04-20T13:23:23.850Z,24.20
2018-04-20T13:25:52.130Z,24.10
2018-04-20T13:28:19.647Z,24.10
2018-04-20T13:30:47.119Z,24.20
2018-04-20T13:33:14.644Z,24.20
2018-04-20T13:35:42.959Z,24.20
2018-04-20T13:38:13.096Z,24.20
2018-04-20T13:40:40.620Z,24.30
2018-04-20T13:43:08.115Z,24.20
2018-04-20T13:45:35.597Z,24.20
2018-04-20T13:48:03.822Z,24.20
2018-04-20T13:50:31.306Z,24.20
2018-04-20T13:52:58.787Z,24.30
2018-04-20T13:55:27.014Z,24.50
2018-04-20T13:57:54.871Z,24.40
2018-04-20T14:00:22.372Z,24.40
2018-04-20T14:02:49.864Z,24.40
2018-04-20T14:05:17.421Z,24.40
2018-04-20T14:07:45.659Z,24.50
2018-04-20T14:10:13.178Z,24.50
2018-04-20T14:12:40.643Z,24.50
2018-04-20T14:15:09.251Z,24.50
2018-04-20T14:17:36.932Z,24.60
2018-04-20T14:20:04.442Z,24.60
2018-04-20T14:22:31.910Z,24.60
2018-04-20T14:24:59.385Z,24.60
2018-04-20T14:27:26.901Z,24.50
2018-04-20T14:29:54.358Z,24.60
2018-04-20T14:32:21.876Z,24.60
2018-04-20T14:34:49.376Z,24.60
2018-04-20T14:37:16.900Z,24.60
2018-04-20T14:39:44.404Z,24.60
2018-04-20T14:42:11.899Z,24.60
2018-04-20T14:44:39.370Z,24.70
2018-04-20T14:47:09.643Z,24.70
2018-04-20T14:49:37.774Z,24.70
2018-04-20T14:52:06.040Z,24.90
2018-04-20T14:54:33.543Z,24.90
2018-04-20T14:57:01.048Z,24.80
2018-04-20T14:59:28.501Z,24.80
2018-04-20T15:01:56.018Z,24.70
2018-04-20T15:04:23.512Z,24.70
2018-04-20T15:06:50.971Z,24.70
2018-04-20T15:09:18.484Z,24.80
2018-04-20T15:11:45.976Z,24.80
2018-04-20T15:14:13.467Z,24.80
2018-04-20T15:16:41.695Z,24.90
2018-04-20T15:19:09.241Z,24.90
2018-04-20T15:21:36.715Z,25.00
2018-04-20T15:24:04.216Z,25.00
2018-04-20T15:26:32.492Z,24.80
2018-04-20T15:29:00.810Z,24.70
2018-04-20T15:31:28.320Z,24.70
2018-04-20T15:33:55.821Z,24.70
2018-04-20T15:36:23.306Z,24.70
2018-04-20T15:38:50.770Z,24.70
2018-04-20T15:41:18.238Z,24.70
2018-04-20T15:43:45.708Z,24.70
2018-04-20T15:46:13.976Z,24.60
2018-04-20T15:48:41.471Z,24.60
2018-04-20T15:51:08.951Z,24.60
2018-04-20T15:53:36.405Z,24.60
2018-04-20T15:56:03.930Z,24.60
2018-04-20T15:58:32.200Z,24.50
2018-04-20T16:01:01.870Z,24.40
2018-04-20T16:03:29.334Z,24.40
2018-04-20T16:05:56.838Z,24.40
2018-04-20T16:08:24.318Z,24.30
2018-04-20T16:10:51.794Z,24.20
2018-04-20T16:13:19.380Z,24.20
2018-04-20T16:15:47.000Z,24.20
2018-04-20T16:18:14.524Z,24.10
2018-04-20T16:20:42.032Z,24.10
2018-04-20T16:23:09.555Z,24.00
2018-04-20T16:25:37.113Z,24.00
2018-04-20T16:28:04.618Z,24.00
2018-04-20T16:30:32.877Z,23.90
2018-04-20T16:33:00.358Z,23.90
2018-04-20T16:35:27.879Z,23.80
2018-04-20T16:37:55.341Z,23.60
2018-04-20T16:43:26.505Z,23.20
2018-04-20T16:45:54.806Z,23.10
2018-04-20T16:48:22.315Z,23.10
2018-04-20T16:50:49.778Z,23.00
2018-04-20T16:53:18.024Z,22.90
2018-04-20T16:55:45.555Z,22.80
2018-04-20T16:58:13.148Z,22.70
2018-04-20T17:00:40.680Z,22.60
2018-04-20T17:03:08.320Z,22.50
2018-04-20T17:05:36.437Z,22.50
2018-04-20T17:08:03.960Z,22.30
2018-04-20T17:10:31.489Z,22.20
2018-04-20T17:13:00.046Z,22.00
2018-04-20T17:15:27.607Z,22.00
2018-04-20T17:17:55.148Z,21.90
2018-04-20T17:20:22.664Z,21.80
2018-04-20T17:22:52.829Z,21.70
2018-04-20T17:25:20.366Z,21.60
2018-04-20T17:27:47.917Z,21.50
2018-04-20T17:30:15.475Z,21.30
2018-04-20T17:32:42.946Z,21.20
2018-04-20T17:35:10.443Z,21.10
2018-04-20T17:37:37.954Z,21.00
2018-04-20T17:40:05.485Z,20.80
2018-04-20T17:42:33.753Z,20.70
2018-04-20T17:45:02.038Z,20.60
2018-04-20T17:47:29.535Z,20.60
2018-04-20T17:49:57.010Z,20.50
2018-04-20T17:52:24.553Z,20.30
2018-04-20T17:54:52.079Z,20.20
2018-04-20T17:57:19.585Z,20.00
2018-04-20T17:59:47.096Z,19.70
2018-04-20T18:02:14.624Z,19.40
2018-04-20T18:04:42.089Z,19.20
2018-04-20T18:07:10.338Z,18.60
2018-04-20T18:09:37.815Z,18.60
2018-04-20T18:12:06.076Z,18.40
2018-04-20T18:14:33.632Z,18.40
2018-04-20T18:17:01.201Z,18.30
2018-04-20T18:19:28.707Z,18.20
2018-04-20T18:21:56.223Z,18.10
2018-04-20T18:24:24.530Z,17.80
2018-04-20T18:26:52.078Z,17.80
2018-04-20T18:29:20.340Z,17.50
2018-04-20T18:31:48.647Z,17.30
2018-04-20T18:34:16.196Z,17.30
2018-04-20T18:36:43.792Z,17.30
2018-04-20T18:39:11.304Z,17.40
2018-04-20T18:41:39.597Z,16.90
2018-04-20T18:44:07.125Z,16.90
2018-04-20T18:46:35.489Z,16.50
2018-04-20T18:49:03.016Z,16.40
2018-04-20T18:51:30.516Z,16.30
2018-04-20T18:53:58.750Z,16.00
2018-04-20T18:56:26.262Z,15.90
2018-04-20T18:58:54.506Z,15.70
2018-04-20T19:01:22.022Z,15.70
2018-04-20T19:03:49.524Z,15.70
2018-04-20T19:06:17.071Z,15.60
2018-04-20T19:08:44.593Z,15.50
2018-04-20T19:11:12.087Z,15.40
2018-04-20T19:13:39.603Z,15.40
2018-04-20T19:16:07.100Z,15.40
2018-04-20T19:18:34.577Z,15.30
2018-04-20T19:21:02.116Z,15.10
2018-04-20T19:23:29.621Z,14.90
2018-04-20T19:25:57.114Z,14.90
2018-04-20T19:28:25.409Z,14.90
2018-04-20T19:30:52.899Z,14.90
2018-04-20T19:33:21.204Z,14.90
2018-04-20T19:35:48.712Z,14.90
2018-04-20T19:38:16.358Z,14.90
2018-04-20T19:40:43.837Z,14.80
2018-04-20T19:43:11.348Z,14.60
2018-04-20T19:45:38.855Z,14.40
2018-04-20T19:48:06.349Z,14.40
2018-04-20T19:50:33.848Z,14.40
2018-04-20T19:53:01.367Z,14.30
2018-04-20T19:55:28.843Z,14.30
2018-04-20T19:57:56.385Z,14.10
2018-04-20T20:00:23.854Z,14.00
2018-04-20T20:02:51.395Z,13.80
2018-04-20T20:05:18.950Z,13.60
2018-04-20T20:07:46.472Z,13.60
2018-04-20T20:10:13.991Z,13.50
2018-04-20T20:12:41.520Z,13.50
2018-04-20T20:15:09.036Z,13.50
2018-04-20T20:17:36.544Z,13.50
2018-04-20T20:20:04.043Z,13.40
2018-04-20T20:22:31.528Z,13.40
2018-04-20T20:24:59.818Z,13.10
2018-04-20T20:27:28.080Z,13.10
2018-04-20T20:29:56.326Z,13.00
2018-04-20T20:32:23.911Z,13.00
2018-04-20T20:34:52.154Z,12.80
2018-04-20T20:37:19.675Z,12.80
2018-04-20T20:39:47.162Z,12.70
2018-04-20T20:42:14.646Z,12.60
2018-04-20T20:44:42.190Z,12.50
2018-04-20T20:47:09.716Z,12.40
2018-04-20T20:49:37.215Z,12.40
2018-04-20T20:52:04.748Z,12.30
2018-04-20T20:54:32.278Z,12.20
2018-04-20T20:56:59.814Z,12.10
2018-04-20T20:59:28.095Z,11.90
2018-04-20T21:01:56.338Z,11.80
2018-04-20T21:04:23.871Z,11.70
2018-04-20T21:06:51.432Z,11.70
2018-04-20T21:09:18.933Z,11.60
2018-04-20T21:11:46.467Z,11.50
2018-04-20T21:14:13.975Z,11.40
2018-04-20T21:16:41.481Z,11.30
2018-04-20T21:19:09.019Z,11.20
2018-04-20T21:21:36.523Z,11.30
2018-04-20T21:24:04.807Z,11.10
2018-04-20T21:26:33.037Z,11.00
2018-04-20T21:29:00.575Z,11.00
2018-04-20T21:31:28.072Z,11.00
2018-04-20T21:33:59.380Z,11.10
2018-04-20T21:36:23.513Z,11.10
2018-04-20T21:38:51.766Z,11.10
2018-04-20T21:41:19.274Z,11.10
2018-04-20T21:43:46.821Z,11.20
2018-04-20T21:46:15.095Z,11.00
2018-04-20T21:48:42.585Z,11.00
2018-04-20T21:51:10.087Z,10.90
2018-04-20T21:53:37.578Z,10.70
2018-04-20T21:56:05.055Z,10.60
2018-04-20T21:58:32.575Z,10.50
2018-04-20T22:01:00.824Z,10.60
2018-04-20T22:03:28.339Z,10.60
2018-04-20T22:05:55.814Z,10.60
2018-04-20T22:08:23.319Z,10.70
2018-04-20T22:10:51.563Z,10.80
2018-04-20T22:13:19.099Z,10.80
2018-04-20T22:15:46.607Z,10.80
2018-04-20T22:18:14.855Z,10.70
2018-04-20T22:20:42.397Z,10.60
2018-04-20T22:23:09.916Z,10.70
2018-04-20T22:25:38.196Z,10.80
2018-04-20T22:28:06.469Z,10.90
2018-04-20T22:30:33.998Z,10.90
2018-04-20T22:33:01.529Z,10.90
2018-04-20T22:35:28.987Z,10.90
2018-04-20T22:37:56.461Z,10.90
2018-04-20T22:40:23.995Z,10.90
2018-04-20T22:42:51.503Z,10.80
2018-04-20T22:45:19.808Z,10.80
2018-04-20T22:47:47.312Z,10.70
2018-04-20T22:50:14.815Z,10.80
2018-04-20T22:52:42.362Z,10.60
2018-04-20T22:55:10.621Z,10.40
2018-04-20T22:57:38.101Z,10.40
2018-04-20T23:00:05.592Z,10.20
2018-04-20T23:02:33.119Z,10.10
2018-04-20T23:05:00.577Z,9.90
2018-04-20T23:07:28.108Z,9.90
2018-04-20T23:09:55.591Z,10.00
2018-04-20T23:12:23.240Z,9.90
2018-04-20T23:14:51.516Z,10.00
2018-04-20T23:17:19.762Z,10.00
2018-04-20T23:19:47.247Z,9.90
2018-04-20T23:22:15.530Z,9.70
2018-04-20T23:24:43.794Z,9.60
2018-04-20T23:27:11.264Z,9.60
2018-04-20T23:29:39.524Z,9.50
2018-04-20T23:32:07.865Z,9.50
2018-04-20T23:34:35.358Z,9.50
2018-04-20T23:37:03.651Z,9.50
2018-04-20T23:39:31.886Z,9.50
2018-04-20T23:41:59.426Z,9.50
2018-04-20T23:44:26.893Z,9.50
2018-04-20T23:46:54.439Z,9.40
2018-04-20T23:49:21.948Z,9.40
2018-04-20T23:51:50.273Z,9.40
2018-04-20T23:54:17.811Z,9.30
2018-04-20T23:56:45.301Z,9.40
2018-04-20T23:59:12.867Z,9.40
